Shadyside, Ohio
Current Conditions -  °F | °C
As of 2:53 AM on Monday 24 Nov 2014 (Local Time) from KHLG Reporting Station
Overcast Overcast  
Wind Chill: 60°   Ceiling: 4300
Heat Index: 60°   Visibility: 10mi
Dew Point: 51°   Wind: 20mph
Humidity: 72%   Direction: 190°S
Pressure: 29.37"   Gusts: 28mph
Location:  39.97°N, 80.75°W
Report Text: KHLG 240753Z AUTO 19017G24KT 10SM OVC043 16/11 A2937 RMK AO2 PK WND 18028/0739 RAB01E22 SLP943 P0000 T01560106
Loading
Personal Weather Stations






























Interactive Weather Map New forecast layout! Learn more

10-Day Weather Forecast

Advertisements
Track Severe Weather on mobile